createdAt,value
2022-12-17T00:02:30.785Z,12.48
2022-12-17T00:05:17.625Z,12.32
2022-12-17T00:08:23.531Z,11.25
2022-12-17T00:16:42.923Z,11.18
2022-12-17T00:19:29.690Z,11.25
2022-12-17T00:22:16.342Z,13.05
2022-12-17T00:25:02.718Z,15.13
2022-12-17T00:27:49.371Z,12.00
2022-12-17T00:30:35.637Z,9.90
2022-12-17T00:33:22.282Z,11.75
2022-12-17T00:36:12.090Z,12.05
2022-12-17T00:38:58.622Z,17.38
2022-12-17T00:41:45.989Z,18.70
2022-12-17T00:44:32.597Z,15.07
2022-12-17T00:47:19.680Z,12.30
2022-12-17T00:50:07.912Z,13.15
2022-12-17T00:52:54.039Z,10.63
2022-12-17T00:55:42.623Z,11.50
2022-12-17T00:58:49.417Z,11.68
2022-12-17T01:01:47.075Z,13.02
2022-12-17T01:04:33.849Z,11.73
2022-12-17T01:07:20.631Z,11.50
2022-12-17T01:10:08.448Z,12.60
2022-12-17T01:12:54.977Z,8.48
2022-12-17T01:15:42.533Z,10.52
2022-12-17T01:18:28.850Z,11.73
2022-12-17T01:21:16.244Z,11.77
2022-12-17T01:24:04.654Z,8.98
2022-12-17T01:27:00.151Z,8.43
2022-12-17T01:29:46.175Z,9.50
2022-12-17T01:32:32.694Z,8.50
2022-12-17T01:35:21.039Z,8.57
2022-12-17T01:38:07.935Z,10.60
2022-12-17T01:40:54.276Z,9.10
2022-12-17T01:43:52.336Z,10.25
2022-12-17T01:46:40.033Z,8.35
2022-12-17T01:49:29.408Z,9.48
2022-12-17T01:52:17.075Z,8.63
2022-12-17T01:55:04.337Z,8.40
2022-12-17T01:57:51.548Z,10.75
2022-12-17T02:00:38.841Z,10.80
2022-12-17T02:03:36.488Z,13.07
2022-12-17T02:06:44.194Z,12.18
2022-12-17T02:09:43.500Z,8.75
2022-12-17T02:12:45.734Z,10.80
2022-12-17T02:15:49.430Z,10.85
2022-12-17T02:18:44.345Z,11.77
2022-12-17T02:21:31.682Z,11.50
2022-12-17T02:24:46.626Z,11.23
2022-12-17T02:27:34.455Z,9.13
2022-12-17T02:30:25.086Z,10.95
2022-12-17T02:33:13.408Z,7.57
2022-12-17T02:36:12.413Z,8.48
2022-12-17T02:38:59.125Z,8.63
2022-12-17T02:41:58.339Z,9.43
2022-12-17T02:44:48.588Z,9.73
2022-12-17T02:47:37.415Z,8.82
2022-12-17T02:50:25.458Z,9.23
2022-12-17T02:53:13.235Z,10.07
2022-12-17T02:55:59.902Z,10.07
2022-12-17T03:00:57.268Z,7.68
2022-12-17T03:06:37.109Z,10.38
2022-12-17T03:18:13.434Z,10.20
2022-12-17T03:23:46.694Z,9.10
2022-12-17T03:26:33.015Z,8.88
2022-12-17T03:29:19.726Z,9.10
2022-12-17T03:32:07.089Z,11.75
2022-12-17T03:37:39.583Z,10.43
2022-12-17T03:40:26.086Z,10.30
2022-12-17T03:43:12.249Z,9.32
2022-12-17T03:45:58.913Z,13.35
2022-12-17T03:48:45.031Z,9.48
2022-12-17T03:51:31.609Z,9.70
2022-12-17T03:54:17.834Z,10.43
2022-12-17T03:57:03.994Z,10.40
2022-12-17T03:59:50.292Z,11.65
2022-12-17T04:02:36.759Z,8.98
2022-12-17T04:05:23.561Z,13.10
2022-12-17T04:08:10.728Z,16.23
2022-12-17T04:10:57.529Z,13.15
2022-12-17T04:13:44.317Z,9.85
2022-12-17T04:16:31.103Z,11.48
2022-12-17T04:19:17.800Z,13.10
2022-12-17T04:22:03.897Z,12.80
2022-12-17T04:24:50.339Z,15.82
2022-12-17T04:27:37.031Z,17.83
2022-12-17T04:30:24.035Z,12.82
2022-12-17T04:33:10.898Z,10.35
2022-12-17T04:35:57.526Z,8.73
2022-12-17T04:38:44.086Z,10.32
2022-12-17T04:41:30.421Z,13.15
2022-12-17T04:44:16.893Z,12.52
2022-12-17T04:47:03.409Z,17.45
2022-12-17T04:49:49.705Z,23.48
2022-12-17T04:52:36.050Z,21.73
2022-12-17T04:55:22.688Z,20.60
2022-12-17T04:58:09.150Z,26.67
2022-12-17T05:00:55.377Z,29.85
2022-12-17T05:03:41.950Z,22.73
2022-12-17T05:06:29.196Z,19.88
2022-12-17T05:09:15.928Z,24.48
2022-12-17T05:12:02.494Z,30.38
2022-12-17T05:14:48.874Z,41.58
2022-12-17T05:17:35.528Z,26.35
2022-12-17T05:20:22.015Z,17.33
2022-12-17T05:23:08.717Z,15.00
2022-12-17T05:25:55.281Z,35.70
2022-12-17T05:28:41.593Z,31.40
2022-12-17T05:31:28.314Z,34.85
2022-12-17T05:34:14.844Z,27.48
2022-12-17T05:37:01.071Z,21.90
2022-12-17T05:39:47.810Z,30.25
2022-12-17T05:42:34.371Z,29.65
2022-12-17T05:45:21.165Z,20.73
2022-12-17T05:48:07.602Z,59.50
2022-12-17T05:50:53.857Z,40.10
2022-12-17T05:53:40.218Z,35.70
2022-12-17T05:56:26.593Z,77.47
2022-12-17T05:59:13.175Z,47.70
2022-12-17T06:01:59.726Z,38.17
2022-12-17T06:04:46.487Z,61.08
2022-12-17T06:07:33.100Z,36.45
2022-12-17T06:10:19.416Z,46.83
2022-12-17T06:13:15.872Z,25.33
2022-12-17T06:16:02.209Z,24.40
2022-12-17T06:18:49.131Z,22.52
2022-12-17T06:21:35.720Z,26.00
2022-12-17T06:24:22.646Z,61.72
2022-12-17T06:27:09.928Z,41.90
2022-12-17T06:29:56.864Z,40.40
2022-12-17T06:32:43.306Z,71.35
2022-12-17T06:35:29.588Z,44.13
2022-12-17T06:38:25.571Z,30.85
2022-12-17T06:41:12.230Z,40.80
2022-12-17T06:43:58.411Z,17.63
2022-12-17T06:46:45.204Z,9.85
2022-12-17T06:49:31.712Z,10.10
2022-12-17T06:52:17.944Z,8.45
2022-12-17T06:55:04.313Z,12.75
2022-12-17T06:57:50.812Z,13.02
2022-12-17T07:00:37.153Z,13.40
2022-12-17T07:03:23.973Z,12.55
2022-12-17T07:06:10.603Z,13.27
2022-12-17T07:08:56.876Z,7.68
2022-12-17T07:11:43.869Z,14.65
2022-12-17T07:14:30.588Z,25.88
2022-12-17T07:17:16.783Z,14.20
2022-12-17T07:20:03.008Z,12.32
2022-12-17T07:22:49.575Z,10.93
2022-12-17T07:25:37.253Z,11.85
2022-12-17T07:28:26.096Z,43.95
2022-12-17T07:31:15.209Z,25.25
2022-12-17T07:34:01.816Z,14.70
2022-12-17T07:36:48.409Z,25.55
2022-12-17T07:39:35.100Z,19.13
2022-12-17T07:42:21.781Z,14.00
2022-12-17T07:45:08.400Z,14.45
2022-12-17T07:47:55.043Z,20.48
2022-12-17T07:50:43.230Z,19.35
2022-12-17T07:53:29.790Z,22.40
2022-12-17T07:56:16.923Z,22.38
2022-12-17T07:59:03.248Z,17.63
2022-12-17T08:01:50.068Z,19.15
2022-12-17T08:04:36.430Z,24.38
2022-12-17T08:07:22.732Z,17.30
2022-12-17T08:10:08.965Z,16.85
2022-12-17T08:12:55.647Z,11.30
2022-12-17T08:15:42.429Z,17.08
2022-12-17T08:18:29.545Z,15.18
2022-12-17T08:21:16.208Z,15.95
2022-12-17T08:24:02.961Z,13.25
2022-12-17T08:26:49.528Z,21.40
2022-12-17T08:29:36.037Z,20.60
2022-12-17T08:32:23.262Z,16.65
2022-12-17T08:35:09.988Z,13.20
2022-12-17T08:37:56.693Z,8.90
2022-12-17T08:40:43.351Z,17.92
2022-12-17T08:43:29.759Z,10.77
2022-12-17T08:46:16.951Z,7.18
2022-12-17T08:49:03.763Z,10.40
2022-12-17T08:51:50.481Z,8.35
2022-12-17T08:54:36.783Z,10.60
2022-12-17T08:57:31.482Z,10.52
2022-12-17T09:00:18.896Z,9.23
2022-12-17T09:03:05.607Z,24.73
2022-12-17T09:05:52.227Z,10.25
2022-12-17T09:08:38.965Z,34.78
2022-12-17T09:11:25.859Z,15.15
2022-12-17T09:14:13.581Z,83.72
2022-12-17T09:23:05.240Z,13.95
2022-12-17T09:25:56.570Z,12.25
2022-12-17T09:28:45.168Z,12.80
2022-12-17T09:31:37.001Z,10.13
2022-12-17T09:34:24.470Z,15.32
2022-12-17T09:37:11.201Z,11.88
2022-12-17T09:39:57.881Z,19.02
2022-12-17T09:43:22.015Z,9.70
2022-12-17T09:46:28.084Z,21.92
2022-12-17T09:49:45.843Z,12.25
2022-12-17T09:52:55.830Z,15.50
2022-12-17T09:56:07.480Z,9.45
2022-12-17T09:58:57.235Z,9.10
2022-12-17T10:01:46.955Z,7.30
2022-12-17T10:04:56.307Z,10.43
2022-12-17T10:07:47.295Z,8.38
2022-12-17T10:10:42.961Z,18.25
2022-12-17T10:13:34.988Z,8.45
2022-12-17T10:16:35.553Z,18.17
2022-12-17T10:19:22.536Z,12.80
2022-12-17T10:25:04.829Z,11.35
2022-12-17T10:27:50.981Z,10.95
2022-12-17T10:30:38.139Z,13.00
2022-12-17T10:33:26.784Z,131.52
2022-12-17T10:36:13.199Z,23.70
2022-12-17T10:39:00.015Z,16.92
2022-12-17T10:41:49.674Z,14.30
2022-12-17T10:44:53.712Z,12.60
2022-12-17T10:47:45.170Z,17.00
2022-12-17T10:50:45.132Z,20.80
2022-12-17T10:53:43.986Z,21.98
2022-12-17T10:56:45.491Z,29.70
2022-12-17T10:59:44.897Z,42.72
2022-12-17T11:02:39.604Z,33.17
2022-12-17T11:05:45.357Z,117.45
2022-12-17T11:11:25.464Z,34.92
2022-12-17T11:14:13.123Z,30.88
2022-12-17T11:17:06.882Z,22.23
2022-12-17T11:20:03.063Z,16.83
2022-12-17T11:23:08.902Z,11.45
2022-12-17T11:26:01.072Z,23.00
2022-12-17T11:28:52.467Z,60.00
2022-12-17T11:31:50.452Z,41.67
2022-12-17T11:35:08.881Z,30.52
2022-12-17T11:38:23.418Z,36.03
2022-12-17T11:41:16.773Z,15.57
2022-12-17T11:44:35.690Z,15.30
2022-12-17T11:47:37.966Z,29.73
2022-12-17T11:50:44.737Z,40.15
2022-12-17T11:53:46.383Z,33.53
2022-12-17T11:56:33.162Z,36.22
2022-12-17T11:59:52.669Z,19.25
2022-12-17T12:02:49.572Z,60.83
2022-12-17T12:05:57.255Z,25.40
2022-12-17T12:08:48.071Z,115.13
2022-12-17T12:11:46.566Z,139.38
2022-12-17T12:14:54.360Z,16.45
2022-12-17T12:18:23.768Z,11.15
2022-12-17T12:21:10.961Z,20.38
2022-12-17T12:24:03.586Z,21.65
2022-12-17T12:27:10.161Z,20.83
2022-12-17T12:30:24.985Z,34.35
2022-12-17T12:33:20.981Z,40.83
2022-12-17T12:36:09.661Z,37.90
2022-12-17T12:39:01.938Z,53.70
2022-12-17T12:42:16.496Z,27.10
2022-12-17T12:45:10.455Z,31.30
2022-12-17T12:48:10.954Z,38.38
2022-12-17T12:51:23.827Z,26.60
2022-12-17T12:54:19.503Z,22.55
2022-12-17T12:57:08.716Z,130.32
2022-12-17T12:59:56.241Z,179.45
2022-12-17T13:02:49.776Z,73.55
2022-12-17T13:05:40.114Z,53.03
2022-12-17T13:08:08.618Z,124.55
2022-12-17T13:10:37.902Z,197.10
2022-12-17T13:13:20.322Z,37.60
2022-12-17T13:15:54.696Z,28.10
2022-12-17T13:18:34.854Z,161.07
2022-12-17T13:21:16.288Z,213.25
2022-12-17T13:23:44.792Z,37.92
2022-12-17T13:26:36.092Z,50.22
2022-12-17T13:29:20.362Z,63.90
2022-12-17T13:32:05.515Z,83.40
2022-12-17T13:35:24.210Z,75.85
2022-12-17T13:38:20.345Z,29.42
2022-12-17T13:41:10.460Z,82.25
2022-12-17T13:43:49.629Z,52.88
2022-12-17T13:46:29.508Z,28.00
2022-12-17T13:49:00.261Z,32.47
2022-12-17T13:51:31.044Z,60.58
2022-12-17T13:54:01.907Z,56.08
2022-12-17T13:56:37.810Z,44.53
2022-12-17T13:59:09.621Z,30.13
2022-12-17T14:01:49.846Z,35.50
2022-12-17T14:04:26.325Z,37.08
2022-12-17T14:06:59.442Z,34.78
2022-12-17T14:09:36.056Z,45.25
2022-12-17T14:12:25.421Z,21.38
2022-12-17T14:15:01.594Z,22.77
2022-12-17T14:17:50.080Z,22.55
2022-12-17T14:20:25.693Z,33.08
2022-12-17T14:23:02.401Z,44.55
2022-12-17T14:25:35.718Z,42.80
2022-12-17T14:28:25.256Z,77.80
2022-12-17T14:34:08.598Z,130.57
2022-12-17T14:36:40.047Z,128.40
2022-12-17T14:39:26.640Z,92.88
2022-12-17T14:42:16.989Z,132.82
2022-12-17T14:44:52.855Z,40.42
2022-12-17T14:47:32.945Z,37.45
2022-12-17T14:50:26.429Z,67.22
2022-12-17T14:52:57.703Z,96.43
2022-12-17T14:55:33.329Z,103.47
2022-12-17T14:58:13.457Z,73.45
2022-12-17T15:00:51.115Z,107.68
2022-12-17T15:03:19.703Z,184.60
2022-12-17T15:05:53.244Z,112.97
2022-12-17T15:08:22.397Z,106.32
2022-12-17T15:10:50.970Z,69.72
2022-12-17T15:15:47.693Z,64.43
2022-12-17T15:18:15.713Z,69.68
2022-12-17T15:20:44.153Z,66.05
2022-12-17T15:23:18.917Z,54.05
2022-12-17T15:36:41.224Z,222.45
2022-12-17T15:39:09.756Z,158.00
2022-12-17T15:41:56.838Z,128.20
2022-12-17T15:44:25.150Z,135.45
2022-12-17T15:46:53.445Z,133.30
2022-12-17T15:49:24.719Z,66.30
2022-12-17T15:51:53.287Z,44.00
2022-12-17T15:54:21.714Z,47.13
2022-12-17T15:56:57.070Z,43.03
2022-12-17T15:59:25.483Z,68.53
2022-12-17T16:01:54.211Z,49.00
2022-12-17T16:06:54.109Z,49.97
2022-12-17T16:09:27.362Z,70.47
2022-12-17T16:11:57.141Z,55.40
2022-12-17T16:14:25.924Z,66.15
2022-12-17T16:19:22.671Z,12.25
2022-12-17T16:21:51.056Z,25.70
2022-12-17T16:24:19.753Z,24.80
2022-12-17T16:26:48.102Z,19.17
2022-12-17T16:29:16.597Z,19.13
2022-12-17T16:31:46.581Z,14.00
2022-12-17T16:34:15.252Z,48.72
2022-12-17T16:36:43.660Z,47.92
2022-12-17T16:39:17.944Z,37.60
2022-12-17T16:41:47.257Z,83.82
2022-12-17T16:44:16.015Z,90.68
2022-12-17T16:46:46.801Z,59.70
2022-12-17T16:49:24.953Z,36.88
2022-12-17T16:51:54.812Z,50.25
2022-12-17T16:54:26.566Z,45.40
2022-12-17T16:56:55.365Z,51.30
2022-12-17T16:59:24.162Z,46.97
2022-12-17T17:01:53.806Z,22.63
2022-12-17T17:04:23.638Z,22.30
2022-12-17T17:06:57.196Z,126.25
2022-12-17T17:09:26.614Z,41.25
2022-12-17T17:11:57.342Z,64.32
2022-12-17T17:14:26.912Z,50.60
2022-12-17T17:16:55.429Z,44.22
2022-12-17T17:19:24.024Z,45.03
2022-12-17T17:21:54.936Z,33.03
2022-12-17T17:24:26.195Z,25.23
2022-12-17T17:26:55.911Z,27.83
2022-12-17T17:29:25.797Z,18.25
2022-12-17T17:32:10.334Z,16.17
2022-12-17T17:34:40.787Z,33.67
2022-12-17T17:37:09.212Z,65.13
2022-12-17T17:39:37.763Z,42.50
2022-12-17T17:42:08.452Z,51.30
2022-12-17T17:44:37.682Z,54.00
2022-12-17T17:47:08.134Z,19.42
2022-12-17T17:49:36.853Z,21.42
2022-12-17T17:52:10.225Z,18.33
2022-12-17T17:54:40.104Z,19.63
2022-12-17T17:57:09.853Z,44.47
2022-12-17T17:59:39.897Z,28.70
2022-12-17T18:02:11.529Z,25.98
2022-12-17T18:04:40.378Z,18.45
2022-12-17T18:07:26.083Z,20.42
2022-12-17T18:09:56.284Z,30.27
2022-12-17T18:12:43.214Z,16.00
2022-12-17T18:15:16.924Z,14.27
2022-12-17T18:17:47.730Z,13.07
2022-12-17T18:20:16.807Z,98.70
2022-12-17T18:22:46.808Z,65.20
2022-12-17T18:25:16.950Z,27.88
2022-12-17T18:27:45.515Z,72.40
2022-12-17T18:30:16.663Z,148.13
2022-12-17T18:32:47.475Z,108.63
2022-12-17T18:35:16.246Z,119.45
2022-12-17T18:37:44.541Z,92.80
2022-12-17T18:40:13.146Z,81.88
2022-12-17T18:43:00.027Z,70.47
2022-12-17T18:45:28.718Z,33.90
2022-12-17T18:47:57.185Z,22.13
2022-12-17T18:50:26.134Z,30.05
2022-12-17T18:52:54.411Z,36.50
2022-12-17T18:55:22.930Z,37.17
2022-12-17T18:57:51.457Z,38.28
2022-12-17T19:00:19.685Z,114.78
2022-12-17T19:02:48.415Z,77.55
2022-12-17T19:05:17.154Z,90.80
2022-12-17T19:07:45.700Z,44.63
2022-12-17T19:10:14.267Z,19.33
2022-12-17T19:12:42.599Z,55.38
2022-12-17T19:15:11.155Z,29.95
2022-12-17T19:17:39.721Z,19.17
2022-12-17T19:20:09.034Z,27.23
2022-12-17T19:22:37.475Z,21.88
2022-12-17T19:25:06.265Z,25.35
2022-12-17T19:27:34.574Z,29.27
2022-12-17T19:30:03.150Z,14.43
2022-12-17T19:32:32.073Z,15.32
2022-12-17T19:35:00.604Z,20.70
2022-12-17T19:37:29.014Z,24.42
2022-12-17T19:39:57.769Z,11.18
2022-12-17T19:42:27.599Z,16.55
2022-12-17T19:44:59.411Z,12.73
2022-12-17T19:47:30.882Z,13.20
2022-12-17T19:49:59.408Z,15.95
2022-12-17T19:52:27.641Z,11.75
2022-12-17T19:54:56.237Z,18.92
2022-12-17T19:57:24.649Z,13.05
2022-12-17T19:59:52.648Z,23.92
2022-12-17T20:02:21.129Z,46.80
2022-12-17T20:04:49.736Z,64.55
2022-12-17T20:07:18.602Z,90.95
2022-12-17T20:09:46.898Z,75.40
2022-12-17T20:12:15.439Z,76.40
2022-12-17T20:14:43.796Z,33.30
2022-12-17T20:17:12.521Z,32.55
2022-12-17T20:19:40.976Z,20.00
2022-12-17T20:22:10.800Z,23.90
2022-12-17T20:24:39.911Z,16.58
2022-12-17T20:27:08.486Z,44.40
2022-12-17T20:29:37.088Z,18.40
2022-12-17T20:32:05.696Z,39.75
2022-12-17T20:34:36.391Z,30.88
2022-12-17T20:37:04.340Z,26.02
2022-12-17T20:39:32.648Z,18.73
2022-12-17T20:42:00.672Z,20.00
2022-12-17T20:44:29.093Z,15.80
2022-12-17T20:47:00.499Z,15.50
2022-12-17T20:49:28.556Z,18.90
2022-12-17T20:51:59.630Z,19.10
2022-12-17T20:54:27.843Z,25.48
2022-12-17T20:56:57.682Z,25.67
2022-12-17T20:59:25.811Z,98.88
2022-12-17T21:01:56.355Z,47.80
2022-12-17T21:04:25.148Z,48.40
2022-12-17T21:06:54.022Z,60.97
2022-12-17T21:09:25.760Z,37.85
2022-12-17T21:11:54.142Z,22.88
2022-12-17T21:14:22.043Z,24.67
2022-12-17T21:16:50.301Z,21.98
2022-12-17T21:19:20.270Z,24.35
2022-12-17T21:21:48.771Z,19.45
2022-12-17T21:24:16.688Z,17.02
2022-12-17T21:26:47.213Z,24.75
2022-12-17T21:29:16.445Z,21.48
2022-12-17T21:31:47.591Z,19.67
2022-12-17T21:34:34.991Z,25.17
2022-12-17T21:45:40.894Z,26.42
2022-12-17T21:50:54.291Z,33.35
2022-12-17T21:53:23.784Z,19.25
2022-12-17T21:55:54.958Z,34.53
2022-12-17T21:58:24.014Z,19.80
2022-12-17T22:00:54.792Z,25.95
2022-12-17T22:03:22.986Z,21.02
2022-12-17T22:05:51.202Z,14.60
2022-12-17T22:08:19.572Z,12.77
2022-12-17T22:10:51.660Z,15.35
2022-12-17T22:13:38.536Z,21.10
2022-12-17T22:16:07.710Z,11.73
2022-12-17T22:18:35.932Z,13.00
2022-12-17T22:21:04.760Z,17.08
2022-12-17T22:23:33.211Z,10.80
2022-12-17T22:28:29.366Z,14.07
2022-12-17T22:31:16.004Z,19.27
2022-12-17T22:34:30.853Z,18.38
2022-12-17T22:38:53.437Z,13.95
2022-12-17T22:43:45.209Z,12.35
2022-12-17T22:44:49.499Z,14.77
2022-12-17T22:45:22.782Z,13.23
2022-12-17T22:47:51.566Z,14.18
2022-12-17T22:50:25.970Z,12.57
2022-12-17T22:52:56.721Z,16.33
2022-12-17T22:55:25.216Z,19.50
2022-12-17T22:57:55.148Z,15.90
2022-12-17T23:00:27.168Z,11.68
2022-12-17T23:02:56.264Z,16.98
2022-12-17T23:05:25.595Z,25.63
2022-12-17T23:07:53.845Z,29.98
2022-12-17T23:10:22.952Z,37.38
2022-12-17T23:12:51.431Z,18.83
2022-12-17T23:15:26.439Z,35.38
2022-12-17T23:17:56.684Z,17.42
2022-12-17T23:20:26.316Z,21.05
2022-12-17T23:22:54.547Z,10.50
2022-12-17T23:25:23.386Z,17.35
2022-12-17T23:30:20.134Z,14.63
2022-12-17T23:32:49.149Z,10.73
2022-12-17T23:35:17.564Z,17.98
2022-12-17T23:37:45.561Z,11.57
2022-12-17T23:40:13.849Z,11.75
2022-12-17T23:42:41.920Z,12.10
2022-12-17T23:45:11.788Z,11.70
2022-12-17T23:47:41.563Z,10.88
2022-12-17T23:50:11.311Z,9.23
2022-12-17T23:52:39.639Z,9.63
2022-12-17T23:55:08.196Z,10.73
2022-12-17T23:57:36.279Z,9.85
